Time;durP1;ratioP1;P1;durP2;ratioP2;P2;SDS_P1;SDS_P2;PMS_P1;PMS_P2;Temp;Humidity;BMP_temperature;BMP_pressure;BME280_temperature;BME280_humidity;BME280_pressure;Samples;Min_cycle;Max_cycle;Signal;HPM_P1;HPM_P2
2021/06/06 00:01:51;;;;;;;17.45;8.85;;;;;;;;;;4423357;32;20130;-73
2021/06/06 00:04:18;;;;;;;18.75;8.88;;;;;;;;;;4407683;32;20519;-73
2021/06/06 00:06:44;;;;;;;16.15;8.93;;;;;;;;;;4421682;32;20330;-75
2021/06/06 00:09:13;;;;;;;19.98;9.35;;;;;;;;;;4407432;32;20563;-74
2021/06/06 00:11:41;;;;;;;21.05;10.63;;;;;;;;;;4407476;32;20182;-72
2021/06/06 00:14:07;;;;;;;17.87;9.73;;;;;;;;;;4422929;32;20150;-74
2021/06/06 00:16:34;;;;;;;19.45;11.32;;;;;;;;;;4407269;32;20222;-73
2021/06/06 00:18:59;;;;;;;16.15;9.77;;;;;;;;;;4407958;32;20161;-73
2021/06/06 00:21:26;;;;;;;16.50;10.05;;;;;;;;;;4407281;32;20252;-72
2021/06/06 00:23:52;;;;;;;24.25;12.88;;;;;;;;;;4408075;32;20163;-72
2021/06/06 00:26:17;;;;;;;24.60;13.65;;;;;;;;;;4420853;32;20190;-71
2021/06/06 00:28:42;;;;;;;23.73;14.23;;;;;;;;;;4421181;32;20138;-73
2021/06/06 00:31:08;;;;;;;27.23;15.75;;;;;;;;;;4406923;32;20166;-73
2021/06/06 00:33:35;;;;;;;23.58;14.00;;;;;;;;;;4407751;32;20247;-72
2021/06/06 00:36:00;;;;;;;24.65;13.52;;;;;;;;;;4406463;32;20222;-72
2021/06/06 00:38:26;;;;;;;18.77;11.95;;;;;;;;;;4421117;32;20520;-73
2021/06/06 00:40:51;;;;;;;21.87;11.52;;;;;;;;;;4407606;32;20177;-73
2021/06/06 00:43:16;;;;;;;15.68;10.57;;;;;;;;;;4420948;32;20138;-73
2021/06/06 00:45:42;;;;;;;21.60;11.70;;;;;;;;;;4422704;32;20523;-73
2021/06/06 00:48:08;;;;;;;16.62;10.02;;;;;;;;;;4407002;32;20161;-73
2021/06/06 00:50:35;;;;;;;18.92;10.75;;;;;;;;;;4406809;32;20287;-72
2021/06/06 00:53:02;;;;;;;18.30;11.15;;;;;;;;;;4408448;32;20154;-73
2021/06/06 00:55:27;;;;;;;15.20;8.82;;;;;;;;;;4421775;32;20191;-73
2021/06/06 00:57:53;;;;;;;14.40;9.02;;;;;;;;;;4408458;32;20591;-73
2021/06/06 01:00:18;;;;;;;22.52;10.05;;;;;;;;;;4406735;32;20214;-73
2021/06/06 01:02:43;;;;;;;13.25;8.65;;;;;;;;;;4406659;32;20180;-73
2021/06/06 01:05:13;;;;;;;15.18;9.60;;;;;;;;;;4420561;32;20160;-73
2021/06/06 01:07:38;;;;;;;17.27;9.43;;;;;;;;;;4406975;32;20246;-72
2021/06/06 01:10:04;;;;;;;19.75;11.18;;;;;;;;;;4408300;32;20188;-73
2021/06/06 01:12:31;;;;;;;16.50;10.93;;;;;;;;;;4406539;32;20179;-73
2021/06/06 01:15:05;;;;;;;21.23;11.45;;;;;;;;;;4407406;32;20188;-71
2021/06/06 01:17:49;;;;;;;23.25;12.18;;;;;;;;;;4420932;32;20133;-73
2021/06/06 01:20:24;;;;;;;19.37;11.45;;;;;;;;;;4406452;32;20162;-72
2021/06/06 01:22:57;;;;;;;20.17;12.15;;;;;;;;;;4407101;32;20214;-73
2021/06/06 01:25:38;;;;;;;19.30;11.73;;;;;;;;;;4421325;32;20137;-73
2021/06/06 01:28:10;;;;;;;21.75;11.93;;;;;;;;;;4406464;32;20173;-72
2021/06/06 01:30:38;;;;;;;16.65;10.43;;;;;;;;;;4406337;32;20165;-72
2021/06/06 01:33:26;;;;;;;19.48;10.45;;;;;;;;;;4421548;32;20161;-72
2021/06/06 01:35:57;;;;;;;14.98;9.07;;;;;;;;;;4396622;32;20288;-72
2021/06/06 01:38:28;;;;;;;13.27;9.10;;;;;;;;;;4420949;32;20138;-72
2021/06/06 01:40:55;;;;;;;12.10;8.32;;;;;;;;;;4406113;32;20201;-73
2021/06/06 01:43:23;;;;;;;14.82;9.02;;;;;;;;;;4407640;32;20208;-73
2021/06/06 01:45:51;;;;;;;12.75;8.18;;;;;;;;;;4407780;32;20212;-73
2021/06/06 01:48:16;;;;;;;13.30;8.25;;;;;;;;;;4419771;32;20138;-72
2021/06/06 01:50:59;;;;;;;12.30;7.60;;;;;;;;;;4406005;32;20196;-72
2021/06/06 01:53:26;;;;;;;13.35;8.23;;;;;;;;;;4419877;32;20485;-72
2021/06/06 01:55:53;;;;;;;13.05;7.80;;;;;;;;;;4405872;32;20174;-72
2021/06/06 01:58:20;;;;;;;11.82;8.05;;;;;;;;;;4419876;32;20141;-72
2021/06/06 02:00:49;;;;;;;13.55;7.78;;;;;;;;;;4406697;32;20276;-72
2021/06/06 02:03:14;;;;;;;11.43;7.45;;;;;;;;;;4419687;32;20163;-73
2021/06/06 02:05:40;;;;;;;10.25;6.93;;;;;;;;;;4420040;32;20133;-72
2021/06/06 02:08:08;;;;;;;13.13;8.00;;;;;;;;;;4406569;32;20597;-72
2021/06/06 02:10:37;;;;;;;12.60;8.15;;;;;;;;;;4421980;32;20238;-73
2021/06/06 02:13:17;;;;;;;13.77;8.60;;;;;;;;;;4420577;32;20212;-72
2021/06/06 02:15:42;;;;;;;11.52;7.55;;;;;;;;;;4420586;32;20206;-72
2021/06/06 02:18:08;;;;;;;11.73;8.00;;;;;;;;;;4406225;32;20524;-72
2021/06/06 02:20:37;;;;;;;14.93;8.50;;;;;;;;;;4405791;32;20261;-72
2021/06/06 02:23:02;;;;;;;13.93;7.32;;;;;;;;;;4407555;32;20165;-73
2021/06/06 02:25:28;;;;;;;12.32;8.38;;;;;;;;;;4420194;32;20483;-73
2021/06/06 02:28:12;;;;;;;14.98;8.35;;;;;;;;;;4407593;32;20193;-73
2021/06/06 02:30:45;;;;;;;13.62;8.98;;;;;;;;;;4406872;32;20215;-74
2021/06/06 02:33:18;;;;;;;15.18;10.00;;;;;;;;;;4407467;32;20598;-73
2021/06/06 02:35:50;;;;;;;17.60;11.27;;;;;;;;;;4420774;32;20207;-73
2021/06/06 02:38:21;;;;;;;13.88;8.75;;;;;;;;;;4421520;32;20138;-72
2021/06/06 02:40:51;;;;;;;16.80;9.68;;;;;;;;;;4429928;32;20202;-72
2021/06/06 02:43:25;;;;;;;18.08;9.88;;;;;;;;;;4434489;32;20582;-72
2021/06/06 02:45:52;;;;;;;15.35;9.35;;;;;;;;;;4421087;32;20158;-72
2021/06/06 02:48:22;;;;;;;15.25;9.75;;;;;;;;;;4420431;32;20229;-72
2021/06/06 02:50:47;;;;;;;16.60;10.75;;;;;;;;;;4422007;32;20194;-72
2021/06/06 02:53:15;;;;;;;14.18;9.15;;;;;;;;;;4420598;32;20200;-72
2021/06/06 02:55:42;;;;;;;14.57;9.13;;;;;;;;;;4420745;32;20248;-72
2021/06/06 02:58:10;;;;;;;13.20;8.95;;;;;;;;;;4436346;32;20550;-72
2021/06/06 03:00:39;;;;;;;16.98;10.27;;;;;;;;;;4423849;32;20230;-72
2021/06/06 03:03:09;;;;;;;13.60;9.05;;;;;;;;;;4423224;32;20181;-72
2021/06/06 03:05:35;;;;;;;21.33;11.23;;;;;;;;;;4437034;32;20135;-72
2021/06/06 03:08:02;;;;;;;16.10;9.52;;;;;;;;;;4423100;32;20507;-73
2021/06/06 03:10:28;;;;;;;14.70;10.13;;;;;;;;;;4423060;32;20186;-72
2021/06/06 03:12:54;;;;;;;14.10;9.30;;;;;;;;;;4423219;32;20200;-72
2021/06/06 03:15:22;;;;;;;17.02;10.02;;;;;;;;;;4438502;32;20273;-72
2021/06/06 03:17:50;;;;;;;12.35;8.98;;;;;;;;;;4439603;32;20581;-73
2021/06/06 03:20:27;;;;;;;14.90;8.93;;;;;;;;;;4423214;32;20458;-73
2021/06/06 03:22:54;;;;;;;14.15;9.15;;;;;;;;;;4439294;32;20468;-72
2021/06/06 03:25:37;;;;;;;15.07;9.50;;;;;;;;;;4423281;32;20559;-72
2021/06/06 03:28:03;;;;;;;17.05;9.65;;;;;;;;;;4423885;32;20188;-72
2021/06/06 03:30:40;;;;;;;15.85;8.85;;;;;;;;;;4438524;32;20142;-73
2021/06/06 03:33:08;;;;;;;14.25;9.00;;;;;;;;;;4437658;32;20129;-73
2021/06/06 03:35:33;;;;;;;13.65;8.70;;;;;;;;;;4424141;32;20195;-72
2021/06/06 03:37:58;;;;;;;14.82;8.98;;;;;;;;;;4422880;32;20578;-71
2021/06/06 03:40:25;;;;;;;13.27;8.25;;;;;;;;;;4436896;32;20134;-72
2021/06/06 03:42:50;;;;;;;13.02;8.32;;;;;;;;;;4424115;32;20165;-72
2021/06/06 03:45:16;;;;;;;13.45;8.57;;;;;;;;;;4422786;32;20591;-72
2021/06/06 03:47:41;;;;;;;13.15;8.95;;;;;;;;;;4424461;32;20203;-72
2021/06/06 03:50:10;;;;;;;15.15;9.85;;;;;;;;;;4422540;32;20445;-72
2021/06/06 03:52:35;;;;;;;16.27;9.10;;;;;;;;;;4436710;32;20133;-72
2021/06/06 03:55:02;;;;;;;14.40;8.73;;;;;;;;;;4424368;32;20184;-73
2021/06/06 03:57:27;;;;;;;11.65;8.77;;;;;;;;;;4422630;32;20169;-72
2021/06/06 03:59:52;;;;;;;16.60;9.82;;;;;;;;;;4422463;32;20209;-72
2021/06/06 04:02:18;;;;;;;15.80;9.88;;;;;;;;;;4436894;32;20129;-72
2021/06/06 04:04:43;;;;;;;15.23;9.35;;;;;;;;;;4424462;32;20222;-74
2021/06/06 04:07:08;;;;;;;13.00;7.90;;;;;;;;;;4438419;32;20585;-73
2021/06/06 04:09:33;;;;;;;15.52;9.00;;;;;;;;;;4437373;32;20264;-73
2021/06/06 04:11:58;;;;;;;16.60;9.02;;;;;;;;;;4422663;32;20260;-73
2021/06/06 04:14:23;;;;;;;12.45;8.48;;;;;;;;;;4438304;32;20153;-73
2021/06/06 04:16:49;;;;;;;17.40;9.05;;;;;;;;;;4422692;32;20173;-73
2021/06/06 04:19:14;;;;;;;15.38;8.82;;;;;;;;;;4424094;32;20165;-74
2021/06/06 04:21:39;;;;;;;14.48;8.70;;;;;;;;;;4436583;32;20427;-73
2021/06/06 04:24:04;;;;;;;11.68;7.70;;;;;;;;;;4436179;32;20193;-72
2021/06/06 04:26:30;;;;;;;13.35;8.63;;;;;;;;;;4438123;32;20184;-73
2021/06/06 04:28:55;;;;;;;11.18;8.02;;;;;;;;;;4437205;32;20489;-73
2021/06/06 04:31:21;;;;;;;14.48;7.72;;;;;;;;;;4437990;32;20491;-73
2021/06/06 04:33:46;;;;;;;15.23;8.38;;;;;;;;;;4422929;32;20165;-73
2021/06/06 04:36:12;;;;;;;14.05;7.93;;;;;;;;;;4422445;32;20200;-72
2021/06/06 04:38:37;;;;;;;13.10;8.30;;;;;;;;;;4423445;32;20241;-73
2021/06/06 04:41:05;;;;;;;12.25;7.72;;;;;;;;;;4422137;32;20161;-72
2021/06/06 04:43:30;;;;;;;12.32;8.05;;;;;;;;;;4423100;32;20191;-73
2021/06/06 04:45:55;;;;;;;10.68;7.43;;;;;;;;;;4423603;32;20165;-72
2021/06/06 04:48:26;;;;;;;12.60;7.60;;;;;;;;;;4422313;32;20158;-72
2021/06/06 04:50:52;;;;;;;11.63;7.72;;;;;;;;;;4436150;32;20194;-72
2021/06/06 04:53:17;;;;;;;13.45;7.87;;;;;;;;;;4422233;32;20162;-73
2021/06/06 04:55:43;;;;;;;11.88;7.57;;;;;;;;;;4424100;32;20519;-74
2021/06/06 04:58:13;;;;;;;15.10;7.55;;;;;;;;;;4422191;32;20158;-73
2021/06/06 05:00:41;;;;;;;14.65;9.20;;;;;;;;;;4422685;32;20161;-73
2021/06/06 05:03:06;;;;;;;12.13;7.65;;;;;;;;;;4437524;32;20134;-73
2021/06/06 05:05:31;;;;;;;13.27;9.10;;;;;;;;;;4437572;32;20141;-72
2021/06/06 05:08:01;;;;;;;13.98;8.82;;;;;;;;;;4437636;32;20130;-73
2021/06/06 05:10:27;;;;;;;13.10;7.97;;;;;;;;;;4421652;32;20226;-72
2021/06/06 05:12:52;;;;;;;11.98;7.85;;;;;;;;;;4421749;32;20188;-73
2021/06/06 05:15:18;;;;;;;10.90;6.87;;;;;;;;;;4435699;32;20157;-73
2021/06/06 05:17:44;;;;;;;12.00;7.57;;;;;;;;;;4437989;32;20200;-74
2021/06/06 05:20:10;;;;;;;11.02;6.70;;;;;;;;;;4423438;32;20233;-73
2021/06/06 05:22:35;;;;;;;11.40;7.15;;;;;;;;;;4435194;32;20206;-73
2021/06/06 05:25:00;;;;;;;11.80;6.33;;;;;;;;;;4421670;32;20157;-73
2021/06/06 05:27:26;;;;;;;8.05;5.40;;;;;;;;;;4421675;32;20256;-72
2021/06/06 05:29:51;;;;;;;10.23;5.75;;;;;;;;;;4421467;32;20694;-72
2021/06/06 05:32:16;;;;;;;10.45;6.10;;;;;;;;;;4435725;32;20206;-72
2021/06/06 05:34:43;;;;;;;10.13;5.78;;;;;;;;;;4435430;32;20172;-72
2021/06/06 05:37:09;;;;;;;10.73;5.30;;;;;;;;;;4422229;32;20265;-73
2021/06/06 05:39:35;;;;;;;6.75;5.05;;;;;;;;;;4423090;32;20253;-74
2021/06/06 05:42:00;;;;;;;7.35;4.78;;;;;;;;;;4421480;32;20177;-74
2021/06/06 05:44:25;;;;;;;7.13;5.10;;;;;;;;;;4421878;32;20162;-73
2021/06/06 05:46:51;;;;;;;6.80;5.03;;;;;;;;;;4421343;32;20252;-73
2021/06/06 05:49:16;;;;;;;8.05;5.18;;;;;;;;;;4436018;32;20244;-73
2021/06/06 05:51:41;;;;;;;7.43;5.43;;;;;;;;;;4436830;32;20198;-75
2021/06/06 05:54:06;;;;;;;8.43;5.43;;;;;;;;;;4435443;32;20232;-73
2021/06/06 05:56:32;;;;;;;10.07;5.27;;;;;;;;;;4421263;32;20214;-74
2021/06/06 05:58:57;;;;;;;11.02;5.85;;;;;;;;;;4435910;32;20267;-73
2021/06/06 06:01:22;;;;;;;7.72;5.18;;;;;;;;;;4421260;32;20196;-74
2021/06/06 06:03:48;;;;;;;9.68;4.85;;;;;;;;;;4407097;32;20230;-73
2021/06/06 06:06:13;;;;;;;8.07;5.30;;;;;;;;;;4420344;32;20572;-74
2021/06/06 06:08:40;;;;;;;11.27;6.18;;;;;;;;;;4420338;32;20248;-75
2021/06/06 06:11:06;;;;;;;7.43;4.97;;;;;;;;;;4405905;32;20177;-74
2021/06/06 06:13:32;;;;;;;6.37;5.20;;;;;;;;;;4433723;32;20153;-74
2021/06/06 06:15:59;;;;;;;9.35;5.32;;;;;;;;;;4435520;32;20154;-73
2021/06/06 06:18:25;;;;;;;7.93;5.20;;;;;;;;;;4435275;32;20236;-73
2021/06/06 06:20:51;;;;;;;9.25;5.70;;;;;;;;;;4422564;32;20598;-73
2021/06/06 06:23:16;;;;;;;7.35;5.25;;;;;;;;;;4421335;32;20180;-74
2021/06/06 06:25:41;;;;;;;6.93;5.00;;;;;;;;;;4435263;32;20455;-73
2021/06/06 06:28:06;;;;;;;6.47;5.62;;;;;;;;;;4436040;32;20207;-73
2021/06/06 06:30:33;;;;;;;8.38;5.53;;;;;;;;;;4435621;32;20160;-73
2021/06/06 06:33:00;;;;;;;6.45;5.60;;;;;;;;;;4435090;32;20156;-72
2021/06/06 06:35:26;;;;;;;7.07;5.18;;;;;;;;;;4438473;32;20134;-73
2021/06/06 06:37:51;;;;;;;9.88;5.43;;;;;;;;;;4423834;32;20214;-73
2021/06/06 06:40:17;;;;;;;6.70;4.80;;;;;;;;;;4437684;32;20133;-73
2021/06/06 06:42:42;;;;;;;6.43;4.93;;;;;;;;;;4439822;32;20441;-75
2021/06/06 06:45:09;;;;;;;7.35;4.85;;;;;;;;;;4439326;32;20205;-74
2021/06/06 06:47:34;;;;;;;8.45;5.15;;;;;;;;;;4439487;32;20198;-74
2021/06/06 06:50:00;;;;;;;5.95;4.55;;;;;;;;;;4437671;32;20161;-74
2021/06/06 06:52:25;;;;;;;4.95;4.22;;;;;;;;;;4424111;32;20180;-74
2021/06/06 06:54:50;;;;;;;6.70;4.80;;;;;;;;;;4423875;32;20218;-74
2021/06/06 06:57:15;;;;;;;6.90;4.78;;;;;;;;;;4425315;32;20165;-74
2021/06/06 06:59:40;;;;;;;6.22;4.50;;;;;;;;;;4437519;32;20142;-75
2021/06/06 07:02:07;;;;;;;8.07;4.82;;;;;;;;;;4438016;32;20130;-74
2021/06/06 07:04:32;;;;;;;5.15;3.92;;;;;;;;;;4423562;32;20246;-74
2021/06/06 07:06:58;;;;;;;6.53;4.20;;;;;;;;;;4421867;32;20188;-77
2021/06/06 07:09:24;;;;;;;6.70;4.47;;;;;;;;;;4437566;32;20406;-77
2021/06/06 07:11:49;;;;;;;5.45;4.00;;;;;;;;;;4423549;32;20192;-77
2021/06/06 07:14:14;;;;;;;7.07;3.53;;;;;;;;;;4438416;32;20187;-76
2021/06/06 07:16:39;;;;;;;4.72;3.47;;;;;;;;;;4437671;32;20157;-76
2021/06/06 07:19:05;;;;;;;4.90;3.25;;;;;;;;;;4424081;32;20157;-76
2021/06/06 07:21:31;;;;;;;5.93;3.60;;;;;;;;;;4423372;32;20169;-77
2021/06/06 07:23:56;;;;;;;4.75;3.12;;;;;;;;;;4423285;32;20502;-77
2021/06/06 07:26:26;;;;;;;4.22;2.97;;;;;;;;;;4437228;32;20137;-76
2021/06/06 07:28:54;;;;;;;5.18;2.90;;;;;;;;;;4437425;32;20206;-78
2021/06/06 07:31:19;;;;;;;6.60;3.00;;;;;;;;;;4423406;32;20157;-78
2021/06/06 07:33:44;;;;;;;3.70;2.60;;;;;;;;;;4423034;32;20219;-78
2021/06/06 07:36:14;;;;;;;5.32;3.00;;;;;;;;;;4438210;32;20307;-77
2021/06/06 07:38:40;;;;;;;3.42;2.80;;;;;;;;;;4436701;32;20158;-79
2021/06/06 07:41:05;;;;;;;5.97;2.97;;;;;;;;;;4438819;32;20137;-78
2021/06/06 07:43:32;;;;;;;5.15;3.12;;;;;;;;;;4436828;32;20522;-78
2021/06/06 07:45:57;;;;;;;4.87;3.08;;;;;;;;;;4424371;32;20513;-79
2021/06/06 07:48:22;;;;;;;4.95;3.45;;;;;;;;;;4422754;32;20248;-79
2021/06/06 07:50:49;;;;;;;6.72;3.92;;;;;;;;;;4437025;32;20300;-79
2021/06/06 07:53:15;;;;;;;5.43;3.47;;;;;;;;;;4438432;32;20658;-79
2021/06/06 07:55:40;;;;;;;4.95;3.42;;;;;;;;;;4422683;32;20184;-78
2021/06/06 07:58:05;;;;;;;4.53;3.47;;;;;;;;;;4422906;32;20157;-79
2021/06/06 08:00:41;;;;;;;4.75;3.50;;;;;;;;;;4438802;32;20314;-78
2021/06/06 08:03:07;;;;;;;4.03;3.10;;;;;;;;;;4436927;32;20172;-79
2021/06/06 08:05:33;;;;;;;6.32;4.18;;;;;;;;;;4422669;32;20582;-79
2021/06/06 08:07:58;;;;;;;4.00;3.03;;;;;;;;;;4436479;32;20160;-79
2021/06/06 08:10:25;;;;;;;6.32;3.47;;;;;;;;;;4436216;32;20172;-78
2021/06/06 08:12:50;;;;;;;4.85;3.40;;;;;;;;;;4422056;32;20166;-77
2021/06/06 08:15:16;;;;;;;6.80;3.40;;;;;;;;;;4426030;32;20455;-77
2021/06/06 08:17:41;;;;;;;6.45;3.70;;;;;;;;;;4406839;32;20162;-77
2021/06/06 08:20:08;;;;;;;5.85;3.55;;;;;;;;;;4421086;32;20164;-78
2021/06/06 08:22:34;;;;;;;5.15;3.55;;;;;;;;;;4408634;32;20713;-78
2021/06/06 08:24:59;;;;;;;5.25;3.30;;;;;;;;;;4407025;32;20154;-78
2021/06/06 08:27:25;;;;;;;5.50;3.37;;;;;;;;;;4422834;32;20183;-78
2021/06/06 08:29:50;;;;;;;4.40;3.12;;;;;;;;;;4421127;32;20236;-79
2021/06/06 08:32:15;;;;;;;5.65;3.45;;;;;;;;;;4422346;32;20225;-79
2021/06/06 08:34:40;;;;;;;3.92;3.30;;;;;;;;;;4427047;32;20134;-79
2021/06/06 08:37:06;;;;;;;5.75;3.22;;;;;;;;;;4411776;32;20268;-78
2021/06/06 08:39:32;;;;;;;4.05;2.58;;;;;;;;;;4408832;32;20320;-79
2021/06/06 08:41:57;;;;;;;3.78;2.80;;;;;;;;;;4423436;32;20133;-79
2021/06/06 08:44:26;;;;;;;4.25;2.72;;;;;;;;;;4421816;32;20134;-78
2021/06/06 08:46:59;;;;;;;5.35;3.03;;;;;;;;;;4412345;32;20176;-78
2021/06/06 08:49:25;;;;;;;4.40;2.72;;;;;;;;;;4437925;32;20273;-78
2021/06/06 08:51:57;;;;;;;3.30;2.55;;;;;;;;;;4418387;32;20161;-78
2021/06/06 08:54:36;;;;;;;3.65;2.70;;;;;;;;;;4421486;32;20164;-79
2021/06/06 08:57:03;;;;;;;4.22;2.78;;;;;;;;;;4419551;32;20200;-78
2021/06/06 08:59:31;;;;;;;6.53;3.10;;;;;;;;;;4436387;32;20176;-76
2021/06/06 09:02:01;;;;;;;5.12;2.75;;;;;;;;;;4431035;32;20145;-78
2021/06/06 09:04:31;;;;;;;4.90;2.78;;;;;;;;;;4422507;32;20126;-78
2021/06/06 09:07:02;;;;;;;5.90;3.03;;;;;;;;;;4422148;32;20130;-78
2021/06/06 09:09:32;;;;;;;3.47;2.60;;;;;;;;;;4406662;32;20241;-78
2021/06/06 09:11:59;;;;;;;5.53;3.03;;;;;;;;;;4421349;32;20198;-77
2021/06/06 09:14:24;;;;;;;4.87;3.03;;;;;;;;;;4406892;32;20205;-78
2021/06/06 09:16:52;;;;;;;4.93;2.45;;;;;;;;;;4420578;32;20149;-78
2021/06/06 09:19:17;;;;;;;5.37;2.53;;;;;;;;;;4406948;32;20389;-78
2021/06/06 09:21:52;;;;;;;4.82;2.60;;;;;;;;;;4406741;32;20191;-79
2021/06/06 09:24:24;;;;;;;4.55;2.58;;;;;;;;;;4406968;32;20161;-77
2021/06/06 09:26:49;;;;;;;7.35;2.25;;;;;;;;;;4421405;32;20183;-79
2021/06/06 09:29:19;;;;;;;6.03;2.58;;;;;;;;;;4418317;32;20162;-78
2021/06/06 09:31:45;;;;;;;4.82;2.65;;;;;;;;;;4436750;32;20290;-78
2021/06/06 09:34:16;;;;;;;5.37;2.20;;;;;;;;;;4437379;32;20138;-79
2021/06/06 09:36:44;;;;;;;3.10;2.30;;;;;;;;;;4436758;32;20157;-78
2021/06/06 09:39:09;;;;;;;5.78;2.42;;;;;;;;;;4436413;32;20134;-79
2021/06/06 09:41:39;;;;;;;4.28;2.20;;;;;;;;;;4422197;32;20544;-77
2021/06/06 09:44:08;;;;;;;3.45;2.00;;;;;;;;;;4436205;32;20493;-79
2021/06/06 09:46:33;;;;;;;3.83;2.17;;;;;;;;;;4421456;32;20213;-78
2021/06/06 09:49:05;;;;;;;3.50;2.30;;;;;;;;;;4435295;32;20134;-79
2021/06/06 09:51:31;;;;;;;4.53;2.15;;;;;;;;;;4436107;32;20268;-78
2021/06/06 09:54:07;;;;;;;4.50;1.90;;;;;;;;;;4435508;32;20156;-79
2021/06/06 09:56:32;;;;;;;2.83;2.20;;;;;;;;;;4421760;32;20670;-80
2021/06/06 09:59:08;;;;;;;3.70;2.42;;;;;;;;;;4435762;32;20134;-78
2021/06/06 10:01:35;;;;;;;4.05;2.67;;;;;;;;;;4409018;32;20218;-78
2021/06/06 10:04:21;;;;;;;3.85;2.12;;;;;;;;;;4435279;32;20544;-80
2021/06/06 10:06:47;;;;;;;3.83;2.10;;;;;;;;;;4421859;32;20530;-78
2021/06/06 10:09:22;;;;;;;4.05;2.20;;;;;;;;;;4437713;32;20607;-77
2021/06/06 10:11:57;;;;;;;5.30;2.65;;;;;;;;;;4424917;32;20156;-77
2021/06/06 10:14:46;;;;;;;3.65;2.28;;;;;;;;;;4438373;32;20137;-78
2021/06/06 10:17:14;;;;;;;3.72;2.35;;;;;;;;;;4414531;32;20220;-78
2021/06/06 10:19:50;;;;;;;5.78;3.03;;;;;;;;;;4439060;32;20184;-76
2021/06/06 10:22:20;;;;;;;3.87;2.10;;;;;;;;;;4424846;32;20206;-78
2021/06/06 10:24:49;;;;;;;5.32;2.70;;;;;;;;;;4424285;32;20213;-78
2021/06/06 10:27:22;;;;;;;4.75;2.37;;;;;;;;;;4438392;32;20195;-78
2021/06/06 10:29:55;;;;;;;4.20;2.35;;;;;;;;;;4438988;32;20172;-78
2021/06/06 10:32:28;;;;;;;5.28;2.60;;;;;;;;;;4424464;32;20209;-77
2021/06/06 10:34:53;;;;;;;5.05;2.53;;;;;;;;;;4424093;32;20165;-78
2021/06/06 10:37:18;;;;;;;5.47;2.42;;;;;;;;;;4425078;32;20496;-77
2021/06/06 10:39:52;;;;;;;3.40;2.25;;;;;;;;;;4424067;32;20362;-77
2021/06/06 10:42:23;;;;;;;3.62;3.00;;;;;;;;;;4424959;32;20232;-78
2021/06/06 10:45:07;;;;;;;4.47;2.20;;;;;;;;;;4440896;32;20118;-79
2021/06/06 10:47:43;;;;;;;5.32;2.47;;;;;;;;;;4433718;32;20165;-78
2021/06/06 10:50:14;;;;;;;4.90;2.50;;;;;;;;;;4429309;32;20153;-81
2021/06/06 10:52:40;;;;;;;7.15;3.22;;;;;;;;;;4439564;32;20149;-77
2021/06/06 10:55:14;;;;;;;6.05;2.90;;;;;;;;;;4432203;32;20482;-79
2021/06/06 10:57:39;;;;;;;3.28;2.35;;;;;;;;;;4437703;32;20198;-78
2021/06/06 11:00:25;;;;;;;4.72;2.80;;;;;;;;;;4422411;32;20140;-78
2021/06/06 11:02:50;;;;;;;4.53;2.72;;;;;;;;;;4422743;32;20133;-78
2021/06/06 11:05:34;;;;;;;3.10;2.28;;;;;;;;;;4408155;32;20267;-78
2021/06/06 11:07:59;;;;;;;4.97;2.40;;;;;;;;;;4422821;32;20202;-79
2021/06/06 11:10:24;;;;;;;4.62;3.08;;;;;;;;;;4408645;32;20162;-79
2021/06/06 11:12:52;;;;;;;5.90;2.67;;;;;;;;;;4421917;32;20165;-78
2021/06/06 11:15:34;;;;;;;4.45;2.78;;;;;;;;;;4423031;32;20183;-76
2021/06/06 11:18:10;;;;;;;4.55;3.00;;;;;;;;;;4421480;32;20227;-74
2021/06/06 11:20:47;;;;;;;3.95;2.40;;;;;;;;;;4421699;32;20461;-75
2021/06/06 11:23:14;;;;;;;3.47;2.45;;;;;;;;;;4407910;32;20164;-74
2021/06/06 11:25:44;;;;;;;5.68;2.95;;;;;;;;;;4422284;32;20531;-75
2021/06/06 11:28:27;;;;;;;4.90;2.75;;;;;;;;;;4407532;32;20184;-74
2021/06/06 11:30:54;;;;;;;5.55;2.60;;;;;;;;;;4421169;32;20188;-75
2021/06/06 11:33:35;;;;;;;4.85;2.60;;;;;;;;;;4409230;32;20498;-76
2021/06/06 11:36:01;;;;;;;4.37;2.50;;;;;;;;;;4407183;32;20162;-75
2021/06/06 11:38:41;;;;;;;3.17;2.47;;;;;;;;;;4407205;32;20292;-75
2021/06/06 11:41:13;;;;;;;4.12;2.35;;;;;;;;;;4407345;32;20154;-75
2021/06/06 11:43:44;;;;;;;3.00;2.30;;;;;;;;;;4409859;32;20515;-75
2021/06/06 11:46:20;;;;;;;4.12;2.10;;;;;;;;;;4421366;32;20165;-74
2021/06/06 11:48:59;;;;;;;4.40;2.30;;;;;;;;;;4423879;32;20138;-76
2021/06/06 11:51:27;;;;;;;6.87;2.78;;;;;;;;;;4422861;32;20181;-75
2021/06/06 11:53:52;;;;;;;3.28;2.20;;;;;;;;;;4424045;32;20145;-76
2021/06/06 11:56:34;;;;;;;5.15;2.55;;;;;;;;;;4423279;32;20168;-75
2021/06/06 11:59:18;;;;;;;3.00;2.22;;;;;;;;;;4427098;32;20145;-75
2021/06/06 12:02:07;;;;;;;2.75;2.05;;;;;;;;;;4438083;32;20295;-75
2021/06/06 12:04:35;;;;;;;3.40;2.20;;;;;;;;;;4428205;32;20192;-75
2021/06/06 12:07:09;;;;;;;4.93;2.35;;;;;;;;;;4438044;32;20494;-75
2021/06/06 12:09:39;;;;;;;3.50;2.40;;;;;;;;;;4424122;32;20219;-77
2021/06/06 12:12:17;;;;;;;5.32;2.60;;;;;;;;;;4438122;32;20207;-77
2021/06/06 12:14:42;;;;;;;4.97;2.37;;;;;;;;;;4437669;32;20133;-76
2021/06/06 12:17:25;;;;;;;3.80;2.45;;;;;;;;;;4436769;32;20157;-76
2021/06/06 12:19:53;;;;;;;4.22;2.12;;;;;;;;;;4440983;32;20130;-76
2021/06/06 12:22:18;;;;;;;2.40;2.00;;;;;;;;;;4427911;32;20166;-74
2021/06/06 12:24:55;;;;;;;3.85;2.30;;;;;;;;;;4426908;32;20133;-77
2021/06/06 12:27:23;;;;;;;3.08;2.08;;;;;;;;;;4412408;32;20248;-76
2021/06/06 12:29:50;;;;;;;1.90;1.37;;;;;;;;;;4424621;32;20138;-77
2021/06/06 12:32:26;;;;;;;5.37;2.20;;;;;;;;;;4408637;32;20178;-76
2021/06/06 12:34:52;;;;;;;3.97;2.25;;;;;;;;;;4406772;32;20229;-76
2021/06/06 12:37:20;;;;;;;3.40;2.00;;;;;;;;;;4425172;32;20175;-76
2021/06/06 12:39:46;;;;;;;2.90;2.10;;;;;;;;;;4433382;32;20272;-77
2021/06/06 12:42:12;;;;;;;3.65;2.00;;;;;;;;;;4406703;32;20184;-76
2021/06/06 12:44:46;;;;;;;2.92;2.25;;;;;;;;;;4430214;32;20164;-77
2021/06/06 12:47:31;;;;;;;4.07;1.80;;;;;;;;;;4424199;32;20142;-76
2021/06/06 12:49:58;;;;;;;3.67;1.85;;;;;;;;;;4406279;32;20540;-76
2021/06/06 12:52:37;;;;;;;3.25;1.90;;;;;;;;;;4420425;32;20225;-77
2021/06/06 12:55:12;;;;;;;3.87;2.10;;;;;;;;;;4421466;32;20122;-76
2021/06/06 12:57:38;;;;;;;3.75;2.40;;;;;;;;;;4426375;32;20153;-76
2021/06/06 13:00:14;;;;;;;4.25;2.20;;;;;;;;;;4406765;32;20170;-75
2021/06/06 13:02:41;;;;;;;4.12;2.10;;;;;;;;;;4406999;32;20177;-75
2021/06/06 13:05:11;;;;;;;3.60;2.10;;;;;;;;;;4421831;32;20254;-76
2021/06/06 13:07:38;;;;;;;2.58;2.03;;;;;;;;;;4414278;32;20166;-76
2021/06/06 13:10:07;;;;;;;5.97;1.80;;;;;;;;;;4420633;32;20145;-75
2021/06/06 13:12:37;;;;;;;2.47;1.80;;;;;;;;;;4426554;32;20145;-76
2021/06/06 13:15:17;;;;;;;5.25;1.92;;;;;;;;;;4420695;32;20129;-76
2021/06/06 13:17:53;;;;;;;3.87;1.80;;;;;;;;;;4420047;32;20199;-77
2021/06/06 13:20:24;;;;;;;6.53;1.90;;;;;;;;;;4407939;32;20176;-77
2021/06/06 13:23:04;;;;;;;3.72;2.10;;;;;;;;;;4420364;32;20157;-80
2021/06/06 13:25:30;;;;;;;3.87;1.85;;;;;;;;;;4410128;32;20157;-82
2021/06/06 13:27:55;;;;;;;3.57;1.63;;;;;;;;;;4437188;32;20161;-79
2021/06/06 13:30:22;;;;;;;3.25;1.80;;;;;;;;;;4424782;32;20275;-81
2021/06/06 13:32:56;;;;;;;2.05;1.30;;;;;;;;;;4423145;32;20604;-80
2021/06/06 13:35:22;;;;;;;3.50;1.20;;;;;;;;;;4422571;32;20153;-80
2021/06/06 13:37:49;;;;;;;1.92;1.20;;;;;;;;;;4422212;32;20627;-80
2021/06/06 13:40:18;;;;;;;1.67;1.10;;;;;;;;;;4435529;32;20202;-80
2021/06/06 13:42:43;;;;;;;2.95;1.80;;;;;;;;;;4421647;32;20181;-80
2021/06/06 13:45:08;;;;;;;3.12;1.70;;;;;;;;;;4436291;32;20132;-81
2021/06/06 13:47:34;;;;;;;6.47;2.50;;;;;;;;;;4425030;32;20204;-80
2021/06/06 13:49:59;;;;;;;1.87;1.42;;;;;;;;;;4420858;32;20164;-80
2021/06/06 13:52:24;;;;;;;3.25;1.65;;;;;;;;;;4407219;32;20193;-81
2021/06/06 13:54:50;;;;;;;4.27;1.60;;;;;;;;;;4420311;32;20179;-81
2021/06/06 13:57:15;;;;;;;2.53;1.60;;;;;;;;;;4406484;32;20280;-80
2021/06/06 13:59:40;;;;;;;2.78;1.50;;;;;;;;;;4423353;32;20474;-81
2021/06/06 14:02:13;;;;;;;3.93;1.90;;;;;;;;;;4414898;32;20204;-78
2021/06/06 14:04:38;;;;;;;3.10;1.27;;;;;;;;;;4406195;32;20253;-80
2021/06/06 14:07:04;;;;;;;4.35;1.67;;;;;;;;;;4406458;32;20238;-81
2021/06/06 14:09:29;;;;;;;4.57;1.87;;;;;;;;;;4406353;32;20196;-80
2021/06/06 14:11:55;;;;;;;2.67;1.90;;;;;;;;;;4421151;32;20250;-79
2021/06/06 14:14:21;;;;;;;3.40;1.58;;;;;;;;;;4435341;32;20221;-80
2021/06/06 14:16:47;;;;;;;3.12;1.35;;;;;;;;;;4422213;32;20230;-80
2021/06/06 14:19:13;;;;;;;2.95;1.70;;;;;;;;;;4435268;32;20130;-79
2021/06/06 14:21:39;;;;;;;3.20;1.60;;;;;;;;;;4436159;32;20164;-77
2021/06/06 14:24:06;;;;;;;4.35;1.62;;;;;;;;;;4435892;32;20168;-78
2021/06/06 14:26:32;;;;;;;3.00;1.40;;;;;;;;;;4420752;32;20188;-76
2021/06/06 14:28:58;;;;;;;2.80;1.40;;;;;;;;;;4421715;32;20158;-77
2021/06/06 14:31:24;;;;;;;3.37;1.70;;;;;;;;;;4434291;32;20165;-76
2021/06/06 14:33:50;;;;;;;3.47;1.30;;;;;;;;;;4434915;32;20125;-77
2021/06/06 14:36:16;;;;;;;2.90;1.20;;;;;;;;;;4434455;32;20141;-77
2021/06/06 14:38:42;;;;;;;5.82;1.40;;;;;;;;;;4435341;32;20129;-78
2021/06/06 14:41:07;;;;;;;2.03;1.10;;;;;;;;;;4420507;32;20158;-76
2021/06/06 14:43:33;;;;;;;2.87;1.37;;;;;;;;;;4409026;32;20162;-77